SBSPSBCB

Guest
Details From SBSP - Sao Paulo Congonhas
To SBCB - CABO FRIO
Flight Number -
Tags generated
Created
Modified
Stats Distance 258 nm / 477 km
Max Altitude 31,600 ft / 9,632 m
Waypoints 5
Social Downloads 1
Likes 0
Share VATSIM

Download

Looking for another format? Having issues loading an existing format? Contact us
Advertisement - Login to hide

Notes

Basic altitude profile: - Ascent Rate: 2500ft/min - Ascent Speed: 250kts - Cruise Altitude: 35000ft - Cruise Speed: 420kts - Descent Rate: 1500ft/min - Descent Speed: 250kts Options: - Use NATs: yes - Use PACOTS: yes - Use low airways: yes - Use high airways: yes

Route

SBSP USABA UW50 BOTOM G678 MRC SBCB

ID Type Via Altitude Latitude Longitude Leg Dist Tot Dist Heading (true) Name
O SBSP APT - 0 ft / 0 m -23.62669˚ -46.65538˚ - 0 nm - Sao Paulo Congonhas
USABA FIX - 31,600 ft / 9,632 m -23.52967˚ -45.05083˚ 88 nm 88 nm 87° / 86° -
BOTOM FIX UW50 (AWY-HI) 23,500 ft / 7,163 m -23.27833˚ -44.06867˚ 56 nm 144 nm 75° / 74° -
MRC VOR G678 (AWY-LO) 9,700 ft / 2,957 m -22.96769˚ -42.89131˚ 67 nm 212 nm 74° / 74° MARICA VOR-DME
O SBCB APT - 0 ft / 0 m -22.92168˚ -42.07427˚ 45 nm 257 nm 87° / 86° CABO FRIO

Altitude Profile

Advertisement - Login to hide

Weather


0- 5 10 15 20 25 30 35+ Temperature / ° C

Clouds and Precipitation
Forecast for 2017-12-11 18:00 UTC. Updated 30 minutes ago

Ground ~20,000 ft ~40,000 ft Winds

SBSP

Details ICAO SBSP (CGH)
Name Sao Paulo Congonhas
Region Brazil
Timezone America/Sao_Paulo (UTC-2.0)
Stats Elevation 2,631 ft / 802 m (AMSL)
Location -23.626693° -46.655377°
Runways 2
Magnetic Variation 21.294° W

METAR

SBSP 111700Z 17017KT 9999 SCT023 BKN100 25/17 Q1011

Decode

TAF

TAF SBSP 110900Z 1112/1212 06005KT CAVOK TX30/1116Z TN16/1208Z BECMG 1113/1115 21008KT BKN016 BECMG 1115/1117 17010KT BKN010 PROB30 TEMPO 1118/1203 4000 DZ BR OVC007 BECMG 1203/1205 6000 BKN006 RMK PGD

Decode

Departure Runways

ID Width Length Bearing (true) Bearing (mag) Surface Threshold Offset Overrun Length
17L 147 ft / 45 m 4,726 ft / 1,441 m 147.28° 168.57° Asphalt 0 ft / 0 m 220 ft / 67 m
17R 147 ft / 45 m 6,406 ft / 1,953 m 147.39° 168.68° Asphalt 413 ft / 126 m 0 ft / 0 m
35L 147 ft / 45 m 6,406 ft / 1,953 m 327.38° 348.67° Asphalt 200 ft / 61 m 0 ft / 0 m
35R 147 ft / 45 m 4,726 ft / 1,441 m 327.28° 348.57° Asphalt 0 ft / 0 m 0 ft / 0 m

SBCB

Details ICAO SBCB (CFB)
Name CABO FRIO
Region Brazil
Timezone America/Sao_Paulo (UTC-2.0)
Stats Elevation 14 ft / 4 m (AMSL)
Location -22.921681° -42.074268°
Runways 1
Magnetic Variation 23.134° W

METAR

SBCB 111700Z 08012KT CAVOK 32/28 Q1005

Decode

TAF

Not found

Destination Runways

ID Width Length Bearing (true) Bearing (mag) Surface Threshold Offset Overrun Length
10 98 ft / 30 m 5,574 ft / 1,699 m 75.53° 98.66° Asphalt 0 ft / 0 m 200 ft / 61 m
28 98 ft / 30 m 5,574 ft / 1,699 m 255.53° 278.66° Asphalt 0 ft / 0 m 200 ft / 61 m

Popular Alternatives